createdAt,value
2019-01-14T00:02:16.558Z,5.37
2019-01-14T00:04:47.503Z,4.93
2019-01-14T00:07:19.338Z,5.63
2019-01-14T00:09:50.043Z,5.73
2019-01-14T00:12:20.751Z,5.40
2019-01-14T00:14:51.373Z,5.00
2019-01-14T00:17:22.132Z,5.53
2019-01-14T00:19:53.079Z,4.63
2019-01-14T00:22:23.700Z,4.97
2019-01-14T00:24:54.310Z,4.67
2019-01-14T00:27:25.139Z,4.93
2019-01-14T00:29:55.742Z,5.10
2019-01-14T00:32:26.357Z,5.47
2019-01-14T00:34:57.054Z,5.30
2019-01-14T00:37:27.784Z,4.63
2019-01-14T00:39:58.544Z,5.03
2019-01-14T00:42:29.470Z,4.60
2019-01-14T00:45:00.229Z,4.37
2019-01-14T00:47:31.130Z,4.50
2019-01-14T00:50:01.870Z,4.93
2019-01-14T00:52:32.674Z,5.27
2019-01-14T00:55:03.512Z,6.37
2019-01-14T00:57:34.245Z,4.83
2019-01-14T01:00:09.023Z,5.13
2019-01-14T01:02:39.851Z,3.80
2019-01-14T01:05:11.163Z,4.60
2019-01-14T01:07:42.041Z,5.37
2019-01-14T01:10:13.335Z,4.67
2019-01-14T01:12:44.084Z,5.20
2019-01-14T01:15:16.430Z,4.53
2019-01-14T01:17:47.042Z,4.20
2019-01-14T01:20:21.062Z,4.50
2019-01-14T01:22:51.818Z,4.83
2019-01-14T01:25:22.559Z,4.03
2019-01-14T01:27:53.261Z,4.77
2019-01-14T01:30:24.126Z,4.57
2019-01-14T01:32:54.881Z,3.87
2019-01-14T01:35:25.640Z,4.30
2019-01-14T01:37:56.242Z,4.70
2019-01-14T01:40:27.009Z,4.37
2019-01-14T01:42:57.841Z,4.67
2019-01-14T01:45:28.544Z,4.90
2019-01-14T01:47:59.195Z,3.93
2019-01-14T01:50:29.799Z,5.30
2019-01-14T01:53:00.516Z,4.57
2019-01-14T01:55:31.505Z,4.27
2019-01-14T01:58:02.138Z,4.50
2019-01-14T02:00:32.752Z,4.30
2019-01-14T02:03:03.581Z,4.60
2019-01-14T02:05:34.329Z,5.50
2019-01-14T02:08:05.145Z,4.03
2019-01-14T02:10:36.018Z,4.27
2019-01-14T02:13:06.745Z,4.43
2019-01-14T02:15:37.384Z,4.20
2019-01-14T02:18:08.598Z,4.47
2019-01-14T02:20:39.188Z,3.77
2019-01-14T02:23:09.834Z,3.97
2019-01-14T02:25:40.578Z,3.70
2019-01-14T02:28:11.323Z,3.77
2019-01-14T02:30:42.185Z,4.70
2019-01-14T02:33:12.889Z,3.70
2019-01-14T02:35:43.685Z,4.37
2019-01-14T02:38:15.135Z,5.17
2019-01-14T02:40:46.113Z,3.67
2019-01-14T02:43:17.400Z,3.93
2019-01-14T02:45:48.177Z,3.67
2019-01-14T02:48:18.922Z,3.57
2019-01-14T02:50:49.766Z,4.03
2019-01-14T02:53:20.511Z,3.73
2019-01-14T02:55:51.253Z,3.30
2019-01-14T02:58:22.074Z,3.80
2019-01-14T03:00:52.794Z,4.00
2019-01-14T03:03:23.551Z,3.20
2019-01-14T03:05:54.271Z,3.90
2019-01-14T03:08:24.891Z,2.40
2019-01-14T03:10:55.242Z,4.13
2019-01-14T03:13:25.861Z,2.97
2019-01-14T03:15:56.131Z,3.53
2019-01-14T03:18:26.649Z,3.33
2019-01-14T03:20:56.911Z,3.20
2019-01-14T03:23:27.398Z,3.27
2019-01-14T03:25:58.558Z,2.80
2019-01-14T03:28:29.335Z,3.63
2019-01-14T03:31:00.099Z,2.73
2019-01-14T03:33:30.840Z,2.93
2019-01-14T03:36:01.522Z,2.90
2019-01-14T03:38:32.498Z,3.50
2019-01-14T03:41:03.355Z,3.47
2019-01-14T03:43:33.935Z,2.87
2019-01-14T03:46:04.692Z,3.50
2019-01-14T03:48:35.442Z,3.23
2019-01-14T03:51:06.083Z,2.90
2019-01-14T03:53:36.854Z,3.20
2019-01-14T03:56:07.596Z,3.33
2019-01-14T03:58:38.036Z,2.90
2019-01-14T04:01:08.505Z,3.03
2019-01-14T04:03:39.753Z,2.60
2019-01-14T04:06:10.351Z,2.67
2019-01-14T04:08:40.630Z,2.23
2019-01-14T04:11:11.233Z,2.40
2019-01-14T04:13:41.501Z,3.40
2019-01-14T04:16:11.984Z,2.87
2019-01-14T04:18:42.386Z,3.03
2019-01-14T04:21:12.986Z,2.50
2019-01-14T04:23:43.326Z,3.03
2019-01-14T04:26:17.528Z,3.93
2019-01-14T04:28:48.217Z,2.87
2019-01-14T04:31:18.961Z,2.83
2019-01-14T04:33:49.688Z,2.50
2019-01-14T04:36:20.797Z,2.80
2019-01-14T04:38:51.522Z,2.60
2019-01-14T04:41:22.169Z,2.57
2019-01-14T04:43:52.793Z,2.60
2019-01-14T04:46:23.516Z,2.67
2019-01-14T04:48:54.259Z,2.30
2019-01-14T04:51:24.974Z,2.17
2019-01-14T04:53:55.598Z,2.87
2019-01-14T04:56:26.466Z,2.47
2019-01-14T04:58:57.333Z,2.20
2019-01-14T05:01:28.142Z,2.40
2019-01-14T05:03:59.027Z,2.40
2019-01-14T05:06:29.745Z,2.30
2019-01-14T05:09:00.561Z,2.30
2019-01-14T05:11:31.205Z,2.23
2019-01-14T05:14:01.880Z,2.43
2019-01-14T05:16:33.150Z,2.13
2019-01-14T05:19:03.973Z,1.97
2019-01-14T05:21:34.705Z,2.30
2019-01-14T05:24:05.337Z,2.27
2019-01-14T05:26:35.673Z,2.17
2019-01-14T05:29:06.263Z,1.77
2019-01-14T05:31:36.694Z,2.10
2019-01-14T05:34:07.056Z,2.27
2019-01-14T05:36:37.463Z,2.23
2019-01-14T05:39:09.387Z,2.10
2019-01-14T05:41:39.959Z,2.03
2019-01-14T05:44:10.466Z,1.87
2019-01-14T05:46:40.929Z,2.53
2019-01-14T05:49:11.465Z,1.80
2019-01-14T05:51:41.853Z,1.50
2019-01-14T05:54:12.282Z,2.20
2019-01-14T05:56:42.749Z,1.80
2019-01-14T05:59:13.314Z,2.60
2019-01-14T06:01:43.629Z,2.10
2019-01-14T06:04:14.170Z,1.30
2019-01-14T06:06:44.517Z,2.27
2019-01-14T06:09:15.214Z,2.17
2019-01-14T06:11:45.676Z,1.77
2019-01-14T06:14:16.097Z,2.20
2019-01-14T06:16:46.576Z,2.03
2019-01-14T06:19:17.140Z,2.13
2019-01-14T06:21:47.490Z,2.50
2019-01-14T06:24:17.886Z,2.37
2019-01-14T06:26:49.181Z,1.90
2019-01-14T06:29:19.758Z,2.10
2019-01-14T06:31:50.468Z,2.47
2019-01-14T06:34:21.339Z,1.97
2019-01-14T06:36:52.184Z,2.60
2019-01-14T06:39:23.014Z,2.63
2019-01-14T06:41:53.759Z,2.13
2019-01-14T06:44:24.486Z,1.80
2019-01-14T06:46:55.222Z,1.53
2019-01-14T06:49:25.942Z,2.23
2019-01-14T06:51:56.688Z,2.03
2019-01-14T06:54:27.278Z,2.37
2019-01-14T06:56:58.139Z,1.63
2019-01-14T06:59:28.882Z,2.30
2019-01-14T07:01:59.618Z,1.60
2019-01-14T07:04:30.526Z,1.90
2019-01-14T07:07:01.252Z,1.73
2019-01-14T07:09:31.989Z,1.73
2019-01-14T07:12:02.663Z,2.77
2019-01-14T07:14:33.614Z,2.43
2019-01-14T07:17:04.059Z,2.37
2019-01-14T07:19:34.587Z,2.13
2019-01-14T07:22:05.107Z,2.37
2019-01-14T07:24:35.669Z,3.00
2019-01-14T07:27:05.990Z,2.17
2019-01-14T07:29:36.579Z,2.20
2019-01-14T07:32:06.903Z,2.50
2019-01-14T07:34:37.326Z,2.40
2019-01-14T07:37:07.759Z,1.80
2019-01-14T07:39:38.328Z,1.80
2019-01-14T07:42:08.801Z,2.60
2019-01-14T07:44:39.263Z,1.87
2019-01-14T07:47:09.703Z,2.10
2019-01-14T07:49:40.145Z,2.73
2019-01-14T07:52:11.533Z,3.53
2019-01-14T07:54:41.958Z,2.10
2019-01-14T07:57:12.273Z,1.80
2019-01-14T07:59:42.701Z,3.10
2019-01-14T08:02:13.411Z,2.97
2019-01-14T08:04:43.822Z,1.90
2019-01-14T08:07:14.150Z,3.43
2019-01-14T08:09:44.717Z,3.13
2019-01-14T08:12:15.177Z,3.20
2019-01-14T08:14:45.645Z,2.40
2019-01-14T08:17:15.987Z,1.97
2019-01-14T08:19:46.553Z,3.30
2019-01-14T08:22:17.105Z,3.33
2019-01-14T08:24:47.518Z,2.33
2019-01-14T08:27:17.841Z,2.53
2019-01-14T08:29:48.289Z,3.30
2019-01-14T08:32:18.828Z,1.98
2019-01-14T08:34:49.458Z,2.90
2019-01-14T08:37:19.906Z,2.73
2019-01-14T08:39:50.498Z,3.05
2019-01-14T08:42:21.430Z,4.27
2019-01-14T08:44:52.001Z,3.70
2019-01-14T08:47:22.550Z,2.73
2019-01-14T08:49:53.082Z,3.13
2019-01-14T08:52:23.530Z,1.43
2019-01-14T08:54:54.291Z,2.65
2019-01-14T08:57:24.953Z,2.03
2019-01-14T08:59:55.542Z,4.50
2019-01-14T09:02:25.874Z,2.77
2019-01-14T09:04:56.429Z,2.53
2019-01-14T09:07:26.886Z,3.00
2019-01-14T09:09:57.300Z,2.10
2019-01-14T09:12:27.783Z,2.40
2019-01-14T09:14:58.250Z,2.98
2019-01-14T09:17:28.774Z,3.37
2019-01-14T09:19:59.854Z,2.67
2019-01-14T09:22:30.171Z,2.10
2019-01-14T09:25:00.618Z,1.63
2019-01-14T09:27:31.073Z,1.80
2019-01-14T09:30:01.590Z,3.00
2019-01-14T09:32:32.122Z,2.37
2019-01-14T09:35:02.643Z,4.17
2019-01-14T09:37:32.957Z,1.93
2019-01-14T09:40:03.378Z,3.53
2019-01-14T09:42:33.799Z,9.97
2019-01-14T09:45:04.681Z,2.53
2019-01-14T09:47:34.999Z,1.90
2019-01-14T09:50:06.632Z,2.27
2019-01-14T09:52:37.374Z,3.00
2019-01-14T09:55:10.325Z,1.87
2019-01-14T09:57:40.735Z,3.07
2019-01-14T10:00:11.729Z,4.07
2019-01-14T10:02:43.186Z,2.47
2019-01-14T10:05:15.381Z,2.63
2019-01-14T10:07:46.019Z,1.87
2019-01-14T10:10:17.742Z,1.70
2019-01-14T10:12:48.174Z,1.60
2019-01-14T10:15:23.709Z,4.27
2019-01-14T10:18:04.712Z,2.53
2019-01-14T10:20:35.205Z,2.87
2019-01-14T10:23:05.749Z,2.87
2019-01-14T10:25:36.173Z,2.57
2019-01-14T10:28:06.486Z,1.77
2019-01-14T10:30:37.210Z,1.93
2019-01-14T10:33:07.862Z,2.47
2019-01-14T10:35:38.584Z,3.60
2019-01-14T10:38:09.329Z,1.50
2019-01-14T10:40:40.203Z,1.40
2019-01-14T10:43:10.840Z,2.20
2019-01-14T10:45:42.654Z,2.07
2019-01-14T10:48:13.405Z,2.23
2019-01-14T10:50:44.153Z,4.77
2019-01-14T10:53:14.861Z,2.03
2019-01-14T10:55:45.739Z,2.03
2019-01-14T10:58:16.491Z,1.87
2019-01-14T11:00:47.287Z,3.70
2019-01-14T11:03:18.130Z,1.50
2019-01-14T11:05:48.769Z,1.83
2019-01-14T11:08:19.512Z,1.97
2019-01-14T11:10:50.319Z,1.53
2019-01-14T11:13:21.129Z,1.73
2019-01-14T11:15:51.765Z,2.60
2019-01-14T11:18:22.628Z,2.07
2019-01-14T11:20:53.733Z,1.60
2019-01-14T11:23:24.350Z,2.10
2019-01-14T11:25:55.109Z,1.73
2019-01-14T11:28:25.734Z,2.40
2019-01-14T11:30:56.342Z,2.67
2019-01-14T11:33:27.362Z,1.97
2019-01-14T11:35:58.107Z,2.83
2019-01-14T11:38:38.167Z,3.27
2019-01-14T11:41:08.989Z,2.73
2019-01-14T11:43:39.699Z,2.53
2019-01-14T11:46:10.328Z,1.87
2019-01-14T11:48:41.242Z,4.75
2019-01-14T11:51:12.187Z,5.87
2019-01-14T11:53:42.885Z,6.63
2019-01-14T11:56:13.523Z,7.30
2019-01-14T11:58:44.253Z,7.97
2019-01-14T12:01:14.701Z,7.13
2019-01-14T12:03:45.538Z,7.78
2019-01-14T12:06:15.810Z,9.47
2019-01-14T12:08:47.374Z,13.60
2019-01-14T12:11:17.790Z,10.20
2019-01-14T12:13:48.427Z,10.33
2019-01-14T12:16:18.840Z,12.67
2019-01-14T12:18:49.329Z,14.07
2019-01-14T12:21:19.807Z,12.10
2019-01-14T12:23:50.458Z,14.03
2019-01-14T12:26:20.795Z,10.33
2019-01-14T12:28:51.290Z,9.97
2019-01-14T12:31:22.010Z,10.73
2019-01-14T12:33:52.867Z,9.83
2019-01-14T12:36:23.489Z,14.67
2019-01-14T12:38:55.069Z,10.60
2019-01-14T12:41:25.872Z,10.38
2019-01-14T12:43:56.502Z,9.50
2019-01-14T12:46:27.138Z,11.37
2019-01-14T12:48:57.890Z,11.67
2019-01-14T12:51:28.503Z,8.83
2019-01-14T12:53:59.254Z,11.43
2019-01-14T12:56:29.925Z,7.80
2019-01-14T12:59:00.653Z,6.87
2019-01-14T13:01:31.477Z,8.33
2019-01-14T13:04:02.416Z,8.23
2019-01-14T13:06:33.090Z,10.50
2019-01-14T13:09:05.267Z,7.87
2019-01-14T13:11:36.981Z,7.97
2019-01-14T13:14:07.649Z,9.07
2019-01-14T13:16:38.525Z,9.03
2019-01-14T13:19:09.515Z,7.97
2019-01-14T13:21:40.122Z,10.43
2019-01-14T13:24:10.750Z,6.73
2019-01-14T13:26:41.381Z,8.07
2019-01-14T13:29:15.263Z,5.80
2019-01-14T13:31:44.142Z,6.03
2019-01-14T13:34:15.053Z,5.53
2019-01-14T13:36:45.790Z,5.23
2019-01-14T13:39:16.538Z,6.43
2019-01-14T13:41:47.270Z,6.57
2019-01-14T13:44:18.023Z,5.60
2019-01-14T13:46:49.576Z,5.90
2019-01-14T13:49:20.314Z,4.67
2019-01-14T13:51:50.886Z,5.57
2019-01-14T13:54:21.680Z,7.23
2019-01-14T13:56:52.515Z,7.53
2019-01-14T13:59:23.382Z,4.40
2019-01-14T14:01:54.133Z,5.60
2019-01-14T14:04:24.867Z,5.90
2019-01-14T14:06:55.854Z,4.77
2019-01-14T14:09:26.179Z,4.43
2019-01-14T14:11:56.771Z,7.07
2019-01-14T14:14:27.051Z,5.47
2019-01-14T14:16:57.843Z,5.43
2019-01-14T14:19:28.471Z,5.17
2019-01-14T14:21:59.258Z,4.60
2019-01-14T14:24:29.974Z,4.57
2019-01-14T14:27:00.587Z,4.90
2019-01-14T14:29:31.479Z,5.30
2019-01-14T14:32:02.208Z,4.23
2019-01-14T14:34:32.899Z,4.10
2019-01-14T14:37:03.662Z,5.13
2019-01-14T14:39:34.433Z,3.30
2019-01-14T14:42:05.302Z,4.40
2019-01-14T14:44:35.898Z,4.30
2019-01-14T14:47:06.226Z,3.10
2019-01-14T14:49:36.786Z,11.47
2019-01-14T14:52:07.053Z,6.20
2019-01-14T14:54:37.682Z,8.13
2019-01-14T14:57:08.034Z,4.57
2019-01-14T14:59:38.611Z,6.43
2019-01-14T15:02:08.981Z,5.80
2019-01-14T15:04:39.670Z,3.70
2019-01-14T15:07:11.257Z,6.80
2019-01-14T15:09:42.735Z,5.63
2019-01-14T15:12:13.024Z,4.83
2019-01-14T15:14:43.367Z,7.27
2019-01-14T15:17:13.792Z,4.13
2019-01-14T15:19:44.229Z,4.97
2019-01-14T15:22:14.753Z,4.53
2019-01-14T15:24:45.320Z,3.47
2019-01-14T15:27:15.790Z,3.93
2019-01-14T15:29:46.353Z,5.43
2019-01-14T15:32:16.834Z,3.57
2019-01-14T15:34:47.555Z,4.40
2019-01-14T15:37:18.454Z,2.77
2019-01-14T15:39:49.615Z,5.80
2019-01-14T15:42:20.359Z,5.23
2019-01-14T15:44:51.102Z,5.30
2019-01-14T15:47:21.847Z,2.90
2019-01-14T15:49:52.532Z,3.33
2019-01-14T15:52:23.202Z,4.60
2019-01-14T15:54:54.046Z,3.37
2019-01-14T15:57:24.847Z,4.70
2019-01-14T15:59:55.696Z,3.63
2019-01-14T16:02:26.448Z,3.73
2019-01-14T16:04:57.131Z,2.97
2019-01-14T16:07:27.967Z,3.57
2019-01-14T16:09:58.819Z,3.80
2019-01-14T16:12:29.762Z,4.10
2019-01-14T16:15:00.383Z,4.43
2019-01-14T16:17:31.187Z,4.53
2019-01-14T16:20:02.637Z,4.80
2019-01-14T16:22:33.521Z,3.10
2019-01-14T16:25:04.511Z,4.60
2019-01-14T16:27:36.230Z,2.80
2019-01-14T16:30:10.210Z,3.53
2019-01-14T16:32:40.845Z,2.97
2019-01-14T16:35:11.723Z,3.30
2019-01-14T16:37:42.744Z,4.37
2019-01-14T16:40:17.954Z,5.10
2019-01-14T16:42:46.007Z,4.57
2019-01-14T16:45:18.966Z,6.90
2019-01-14T16:47:50.014Z,3.33
2019-01-14T16:50:20.935Z,2.93
2019-01-14T16:52:51.700Z,2.70
2019-01-14T16:55:36.095Z,2.87
2019-01-14T16:58:06.877Z,3.40
2019-01-14T17:00:37.907Z,5.13
2019-01-14T17:03:08.923Z,3.17
2019-01-14T17:05:39.706Z,11.33
2019-01-14T17:08:10.315Z,3.67
2019-01-14T17:10:41.261Z,2.73
2019-01-14T17:13:12.022Z,3.67
2019-01-14T17:15:42.771Z,4.07
2019-01-14T17:18:13.443Z,3.47
2019-01-14T17:20:44.889Z,4.87
2019-01-14T17:23:15.653Z,5.23
2019-01-14T17:25:46.347Z,3.53
2019-01-14T17:28:17.283Z,3.50
2019-01-14T17:30:48.096Z,2.93
2019-01-14T17:33:18.940Z,3.33
2019-01-14T17:35:50.080Z,3.40
2019-01-14T17:38:20.809Z,2.83
2019-01-14T17:40:51.575Z,2.90
2019-01-14T17:43:22.499Z,3.47
2019-01-14T17:45:53.334Z,4.90
2019-01-14T17:48:24.206Z,3.40
2019-01-14T17:50:54.981Z,2.57
2019-01-14T17:53:25.695Z,4.57
2019-01-14T17:55:56.512Z,3.37
2019-01-14T17:58:27.265Z,3.57
2019-01-14T18:00:57.726Z,3.47
2019-01-14T18:03:28.498Z,3.50
2019-01-14T18:05:59.353Z,3.53
2019-01-14T18:08:30.097Z,4.63
2019-01-14T18:11:01.826Z,2.97
2019-01-14T18:13:32.984Z,2.53
2019-01-14T18:16:03.634Z,3.80
2019-01-14T18:18:34.224Z,4.20
2019-01-14T18:21:05.496Z,2.73
2019-01-14T18:23:37.400Z,3.40
2019-01-14T18:26:08.074Z,4.07
2019-01-14T18:28:38.793Z,3.90
2019-01-14T18:31:09.576Z,3.10
2019-01-14T18:33:40.236Z,3.00
2019-01-14T18:36:10.994Z,3.17
2019-01-14T18:38:41.631Z,2.90
2019-01-14T18:41:12.569Z,3.80
2019-01-14T18:43:43.297Z,3.50
2019-01-14T18:46:14.870Z,2.97
2019-01-14T18:48:46.853Z,3.90
2019-01-14T18:51:17.779Z,3.33
2019-01-14T18:53:48.704Z,4.17
2019-01-14T18:56:19.442Z,3.47
2019-01-14T18:58:51.319Z,3.30
2019-01-14T19:01:22.264Z,3.70
2019-01-14T19:03:52.912Z,3.30
2019-01-14T19:06:24.615Z,4.20
2019-01-14T19:08:55.333Z,3.40
2019-01-14T19:11:26.045Z,3.50
2019-01-14T19:13:56.815Z,4.47
2019-01-14T19:16:27.671Z,4.07
2019-01-14T19:18:58.414Z,3.50
2019-01-14T19:21:29.231Z,4.03
2019-01-14T19:23:59.989Z,3.67
2019-01-14T19:26:30.627Z,4.37
2019-01-14T19:29:01.594Z,4.12
2019-01-14T19:31:32.500Z,5.27
2019-01-14T19:34:04.568Z,3.90
2019-01-14T19:36:35.398Z,5.87
2019-01-14T19:39:09.521Z,4.30
2019-01-14T19:41:42.686Z,4.30
2019-01-14T19:44:13.578Z,4.70
2019-01-14T19:46:44.486Z,4.47
2019-01-14T19:49:14.824Z,4.13
2019-01-14T19:51:45.623Z,4.20
2019-01-14T19:54:16.426Z,5.13
2019-01-14T19:56:47.163Z,4.50
2019-01-14T19:59:17.784Z,5.90
2019-01-14T20:01:48.844Z,3.80
2019-01-14T20:04:19.525Z,5.10
2019-01-14T20:06:50.283Z,4.50
2019-01-14T20:09:21.041Z,4.03
2019-01-14T20:11:51.751Z,4.83
2019-01-14T20:14:22.682Z,4.67
2019-01-14T20:16:53.302Z,6.43
2019-01-14T20:19:24.185Z,4.37
2019-01-14T20:21:55.085Z,5.43
2019-01-14T20:24:25.764Z,5.07
2019-01-14T20:26:56.591Z,5.47
2019-01-14T20:29:27.241Z,5.83
2019-01-14T20:31:57.889Z,3.63
2019-01-14T20:34:28.741Z,5.17
2019-01-14T20:37:00.021Z,4.70
2019-01-14T20:39:30.789Z,5.10
2019-01-14T20:42:04.625Z,3.60
2019-01-14T20:44:35.452Z,5.33
2019-01-14T20:47:06.326Z,4.97
2019-01-14T20:49:37.017Z,3.80
2019-01-14T20:52:07.749Z,5.20
2019-01-14T20:54:38.513Z,4.17
2019-01-14T20:57:09.543Z,5.77
2019-01-14T20:59:40.350Z,4.30
2019-01-14T21:02:11.313Z,4.33
2019-01-14T21:04:42.100Z,3.97
2019-01-14T21:07:24.893Z,4.80
2019-01-14T21:09:55.472Z,6.50
2019-01-14T21:12:26.328Z,5.03
2019-01-14T21:14:57.899Z,4.13
2019-01-14T21:17:28.444Z,4.77
2019-01-14T21:20:03.281Z,4.70
2019-01-14T21:22:33.671Z,4.07
2019-01-14T21:25:04.638Z,4.70
2019-01-14T21:27:35.121Z,4.30
2019-01-14T21:30:12.139Z,4.30
2019-01-14T21:32:42.697Z,6.30
2019-01-14T21:35:13.427Z,6.20
2019-01-14T21:37:44.184Z,5.23
2019-01-14T21:40:14.893Z,3.80
2019-01-14T21:42:45.158Z,5.03
2019-01-14T21:45:15.968Z,4.27
2019-01-14T21:47:46.066Z,7.03
2019-01-14T21:50:17.837Z,4.47
2019-01-14T21:52:48.430Z,3.97
2019-01-14T21:55:20.937Z,5.07
2019-01-14T21:57:51.016Z,4.97
2019-01-14T22:00:22.889Z,4.73
2019-01-14T22:02:52.998Z,6.47
2019-01-14T22:05:23.285Z,5.63
2019-01-14T22:07:53.357Z,5.70
2019-01-14T22:10:25.490Z,4.97
2019-01-14T22:12:55.711Z,4.57
2019-01-14T22:15:25.942Z,4.07
2019-01-14T22:17:56.307Z,4.10
2019-01-14T22:20:28.410Z,4.50
2019-01-14T22:22:58.933Z,5.07
2019-01-14T22:25:29.399Z,3.87
2019-01-14T22:27:59.722Z,6.53
2019-01-14T22:30:32.517Z,5.17
2019-01-14T22:33:02.604Z,4.37
2019-01-14T22:35:34.094Z,3.40
2019-01-14T22:38:04.681Z,4.17
2019-01-14T22:40:35.015Z,4.73
2019-01-14T22:43:05.418Z,4.17
2019-01-14T22:45:35.829Z,4.10
2019-01-14T22:48:06.292Z,5.60
2019-01-14T22:50:36.430Z,4.97
2019-01-14T22:53:06.589Z,4.00
2019-01-14T22:55:36.678Z,4.67
2019-01-14T22:58:06.876Z,4.57
2019-01-14T23:01:06.388Z,3.87
2019-01-14T23:03:37.742Z,4.03
2019-01-14T23:06:07.943Z,5.67
2019-01-14T23:08:38.419Z,3.90
2019-01-14T23:11:08.605Z,4.73
2019-01-14T23:13:39.382Z,5.37
2019-01-14T23:16:09.642Z,3.73
2019-01-14T23:18:40.112Z,3.30
2019-01-14T23:21:10.365Z,4.07
2019-01-14T23:23:40.822Z,4.03
2019-01-14T23:26:11.082Z,4.87
2019-01-14T23:28:41.563Z,3.53
2019-01-14T23:31:11.725Z,4.33
2019-01-14T23:33:42.287Z,4.20
2019-01-14T23:36:12.943Z,4.43
2019-01-14T23:38:43.537Z,3.87
2019-01-14T23:41:14.255Z,4.97
2019-01-14T23:43:45.179Z,5.87
2019-01-14T23:46:15.866Z,5.17
2019-01-14T23:48:46.517Z,4.33
2019-01-14T23:51:17.311Z,3.97
2019-01-14T23:53:49.647Z,5.00
2019-01-14T23:56:21.134Z,3.77
2019-01-14T23:58:51.410Z,5.27
